Time;durP1;ratioP1;P1;durP2;ratioP2;P2;SDS_P1;SDS_P2;PMS_P1;PMS_P2;Temp;Humidity;BMP_temperature;BMP_pressure;BME280_temperature;BME280_humidity;BME280_pressure;Samples;Min_cycle;Max_cycle;Signal;HPM_P1;HPM_P2
2023/04/19 00:01:23;;;;;;;2.30;1.20;;;15.20;38.00;;;;;;5013199;28;20180;-67
2023/04/19 00:03:49;;;;;;;2.50;1.70;;;15.20;38.00;;;;;;5014027;28;20509;-67
2023/04/19 00:06:15;;;;;;;2.80;1.60;;;15.10;38.30;;;;;;5013021;28;20447;-68
2023/04/19 00:08:42;;;;;;;2.40;1.47;;;15.20;38.00;;;;;;5014480;28;20704;-70
2023/04/19 00:11:08;;;;;;;2.47;1.53;;;15.00;38.90;;;;;;5014100;28;20518;-67
2023/04/19 00:13:34;;;;;;;4.17;2.27;;;15.10;38.30;;;;;;5013824;28;20439;-67
2023/04/19 00:16:00;;;;;;;3.20;1.73;;;15.20;37.30;;;;;;5014221;28;20536;-67
2023/04/19 00:18:25;;;;;;;2.50;1.70;;;15.20;37.70;;;;;;5013907;28;20212;-67
2023/04/19 00:20:51;;;;;;;3.90;1.90;;;15.30;37.30;;;;;;5012959;28;20182;-66
2023/04/19 00:23:17;;;;;;;2.30;1.50;;;15.20;37.30;;;;;;5013987;28;20693;-73
2023/04/19 00:25:44;;;;;;;2.40;1.50;;;15.30;37.90;;;;;;5013801;28;20199;-67
2023/04/19 00:28:09;;;;;;;3.70;2.13;;;15.20;38.00;;;;;;5013828;28;20179;-67
2023/04/19 00:30:35;;;;;;;2.63;1.63;;;15.30;38.10;;;;;;5013654;28;20907;-70
2023/04/19 00:33:00;;;;;;;3.60;2.17;;;15.40;37.40;;;;;;5013498;28;20229;-67
2023/04/19 00:35:26;;;;;;;2.60;1.60;;;15.20;37.60;;;;;;5013755;28;20191;-67
2023/04/19 00:37:52;;;;;;;2.50;1.57;;;15.30;37.30;;;;;;5014326;28;20193;-67
2023/04/19 00:40:17;;;;;;;2.90;1.87;;;15.00;38.20;;;;;;5013439;28;20309;-67
2023/04/19 00:42:43;;;;;;;3.00;1.90;;;14.90;38.40;;;;;;5013170;28;20210;-70
2023/04/19 00:45:10;;;;;;;2.70;1.73;;;15.00;38.20;;;;;;5013945;28;20269;-65
2023/04/19 00:47:36;;;;;;;2.47;1.57;;;15.10;37.80;;;;;;5013561;28;20177;-68
2023/04/19 00:50:03;;;;;;;3.67;2.30;;;15.10;38.40;;;;;;5012364;28;20406;-67
2023/04/19 00:52:29;;;;;;;2.40;1.50;;;15.20;37.60;;;;;;5011857;28;20445;-67
2023/04/19 00:54:56;;;;;;;2.73;1.90;;;15.20;38.00;;;;;;5013076;28;20421;-67
2023/04/19 00:57:23;;;;;;;2.47;1.47;;;15.10;37.80;;;;;;5011888;28;20182;-67
2023/04/19 00:59:50;;;;;;;2.47;1.60;;;15.00;38.40;;;;;;5012191;28;20432;-67
2023/04/19 01:02:16;;;;;;;2.33;1.40;;;14.80;39.00;;;;;;5011924;28;20429;-68
2023/04/19 01:04:41;;;;;;;2.60;1.53;;;14.90;39.20;;;;;;5013123;28;20475;-67
2023/04/19 01:07:08;;;;;;;2.63;1.60;;;15.00;38.60;;;;;;5012826;28;20444;-67
2023/04/19 01:09:33;;;;;;;2.33;1.33;;;15.00;39.20;;;;;;5012032;28;20256;-67
2023/04/19 01:12:01;;;;;;;3.13;2.13;;;15.00;39.00;;;;;;5013301;28;20405;-66
2023/04/19 01:14:26;;;;;;;3.03;2.13;;;15.00;38.90;;;;;;5011669;28;20297;-70
2023/04/19 01:16:53;;;;;;;2.20;1.20;;;14.90;38.60;;;;;;5013039;28;20512;-68
2023/04/19 01:19:18;;;;;;;3.90;1.77;;;14.90;38.20;;;;;;5013273;28;20191;-69
2023/04/19 01:21:45;;;;;;;2.50;1.50;;;14.90;38.60;;;;;;5013011;28;20979;-69
2023/04/19 01:24:10;;;;;;;2.93;1.63;;;15.10;38.20;;;;;;5012607;28;20350;-69
2023/04/19 01:26:36;;;;;;;6.07;2.23;;;14.90;38.50;;;;;;5013133;28;20505;-68
2023/04/19 01:29:02;;;;;;;3.60;2.13;;;14.70;38.30;;;;;;5013090;28;20175;-69
2023/04/19 01:31:28;;;;;;;6.63;2.27;;;14.60;39.50;;;;;;5012765;28;20659;-69
2023/04/19 01:33:53;;;;;;;2.83;1.63;;;14.60;39.30;;;;;;5012630;28;20519;-69
2023/04/19 01:36:19;;;;;;;2.50;1.40;;;14.50;39.70;;;;;;5012573;28;20214;-69
2023/04/19 01:38:46;;;;;;;3.17;1.30;;;14.60;39.60;;;;;;5012662;28;20205;-69
2023/04/19 01:41:12;;;;;;;2.37;1.33;;;14.70;40.40;;;;;;5012719;28;20659;-69
2023/04/19 01:43:38;;;;;;;4.80;1.63;;;14.60;39.80;;;;;;5009707;28;20519;-69
2023/04/19 01:46:03;;;;;;;2.80;1.60;;;14.30;40.30;;;;;;5012215;28;20185;-69
2023/04/19 01:48:29;;;;;;;2.77;1.67;;;14.50;39.50;;;;;;5012581;28;20183;-69
2023/04/19 01:50:55;;;;;;;2.73;1.57;;;14.60;40.80;;;;;;5012432;28;20171;-68
2023/04/19 01:53:20;;;;;;;2.47;1.40;;;14.80;39.30;;;;;;5012026;28;20733;-69
2023/04/19 01:55:46;;;;;;;2.70;1.57;;;14.60;39.40;;;;;;5013024;28;20186;-69
2023/04/19 01:58:12;;;;;;;2.47;1.40;;;14.50;40.20;;;;;;5012611;28;20208;-69
2023/04/19 02:00:37;;;;;;;2.40;1.40;;;14.50;39.90;;;;;;5008790;28;20191;-67
2023/04/19 02:03:03;;;;;;;3.20;2.00;;;14.70;39.20;;;;;;5011091;28;20208;-67
2023/04/19 02:05:28;;;;;;;2.30;1.27;;;14.80;38.80;;;;;;5011882;28;20245;-67
2023/04/19 02:07:54;;;;;;;2.20;1.20;;;14.80;39.20;;;;;;5011284;28;20701;-66
2023/04/19 02:10:20;;;;;;;3.87;2.03;;;14.70;39.30;;;;;;5012174;28;20174;-66
2023/04/19 02:12:45;;;;;;;2.50;1.60;;;14.40;39.40;;;;;;5011657;28;20577;-70
2023/04/19 02:15:11;;;;;;;2.80;1.50;;;14.60;39.40;;;;;;5012161;28;20544;-66
2023/04/19 02:17:37;;;;;;;3.53;2.37;;;14.30;39.60;;;;;;5011784;28;20191;-66
2023/04/19 02:20:04;;;;;;;4.60;2.43;;;14.30;39.80;;;;;;5012000;28;20544;-66
2023/04/19 02:22:29;;;;;;;4.13;2.20;;;14.20;40.90;;;;;;5011616;28;20457;-71
2023/04/19 02:24:55;;;;;;;3.67;1.80;;;14.30;40.30;;;;;;5010982;28;20504;-67
2023/04/19 02:27:21;;;;;;;3.23;1.97;;;14.30;39.70;;;;;;5011719;28;20181;-66
2023/04/19 02:29:46;;;;;;;2.67;1.60;;;14.50;40.20;;;;;;5011793;28;20174;-67
2023/04/19 02:32:12;;;;;;;5.90;2.70;;;14.60;39.40;;;;;;5010511;28;20419;-67
2023/04/19 02:34:38;;;;;;;2.40;1.20;;;14.40;39.50;;;;;;5011493;28;20268;-70
2023/04/19 02:37:04;;;;;;;3.07;1.60;;;14.20;39.50;;;;;;5011767;28;20192;-67
2023/04/19 02:39:30;;;;;;;3.80;1.97;;;13.80;41.30;;;;;;5010337;28;20428;-67
2023/04/19 02:41:56;;;;;;;3.10;1.40;;;14.00;41.10;;;;;;5011819;28;20177;-66
2023/04/19 02:44:22;;;;;;;3.47;1.80;;;14.30;40.20;;;;;;5011306;28;20831;-69
2023/04/19 02:46:49;;;;;;;2.80;1.50;;;14.30;40.00;;;;;;5011550;28;20653;-67
2023/04/19 02:49:15;;;;;;;3.53;1.63;;;14.40;40.10;;;;;;5011592;28;20423;-66
2023/04/19 02:51:40;;;;;;;3.20;1.83;;;14.20;40.40;;;;;;5011595;28;20416;-69
2023/04/19 02:54:06;;;;;;;3.37;1.80;;;14.20;40.40;;;;;;5011652;28;20676;-67
2023/04/19 02:56:31;;;;;;;2.60;1.30;;;14.20;40.30;;;;;;5011430;28;20653;-66
2023/04/19 02:59:00;;;;;;;3.33;1.77;;;14.00;40.60;;;;;;5011571;28;20181;-67
2023/04/19 03:01:26;;;;;;;3.30;1.67;;;14.00;41.10;;;;;;5010286;28;20188;-67
2023/04/19 03:03:51;;;;;;;3.03;1.67;;;14.10;41.40;;;;;;5010878;28;20835;-67
2023/04/19 03:06:17;;;;;;;2.67;1.33;;;14.20;40.60;;;;;;5011600;28;20182;-68
2023/04/19 03:08:42;;;;;;;2.73;1.50;;;14.20;40.30;;;;;;5011484;28;20659;-67
2023/04/19 03:11:09;;;;;;;2.87;1.30;;;14.20;40.90;;;;;;5010287;28;20192;-67
2023/04/19 03:13:35;;;;;;;3.03;1.97;;;14.30;40.80;;;;;;5011232;28;20207;-68
2023/04/19 03:16:01;;;;;;;2.60;1.30;;;14.10;40.50;;;;;;5011776;28;20423;-67
2023/04/19 03:18:26;;;;;;;20.57;2.23;;;14.60;40.50;;;;;;5013258;28;20539;-67
2023/04/19 03:20:52;;;;;;;2.67;1.43;;;14.30;40.40;;;;;;5014002;28;20189;-68
2023/04/19 03:23:18;;;;;;;2.90;1.57;;;14.30;40.00;;;;;;5014600;28;20471;-68
2023/04/19 03:25:43;;;;;;;3.93;1.90;;;14.20;40.70;;;;;;5015133;28;20201;-68
2023/04/19 03:28:09;;;;;;;2.90;1.50;;;14.30;40.30;;;;;;5015226;28;20181;-71
2023/04/19 03:30:35;;;;;;;2.80;1.50;;;14.50;39.90;;;;;;5015494;28;20166;-68
2023/04/19 03:33:00;;;;;;;3.40;1.50;;;14.40;40.10;;;;;;5014351;28;20220;-68
2023/04/19 03:35:28;;;;;;;3.37;1.63;;;14.40;40.00;;;;;;5014951;28;20532;-68
2023/04/19 03:37:53;;;;;;;5.07;2.33;;;14.50;40.30;;;;;;5014954;28;20192;-71
2023/04/19 03:40:19;;;;;;;6.90;2.03;;;14.50;39.90;;;;;;5014875;28;20469;-68
2023/04/19 03:42:45;;;;;;;3.53;1.90;;;14.40;40.90;;;;;;5014328;28;20718;-68
2023/04/19 03:45:10;;;;;;;3.77;1.90;;;14.50;40.70;;;;;;5014723;28;20421;-68
2023/04/19 03:47:36;;;;;;;3.33;1.70;;;14.60;40.00;;;;;;5014781;28;20205;-68
2023/04/19 03:50:02;;;;;;;2.50;1.40;;;14.50;40.00;;;;;;5013570;28;20185;-71
2023/04/19 03:52:27;;;;;;;2.90;1.57;;;14.50;39.90;;;;;;5013175;28;20679;-71
2023/04/19 03:54:53;;;;;;;2.80;1.60;;;14.60;39.50;;;;;;5014378;28;20178;-68
2023/04/19 03:57:19;;;;;;;2.40;1.20;;;14.60;39.70;;;;;;5014810;28;20252;-68
2023/04/19 03:59:44;;;;;;;3.67;1.97;;;14.60;39.30;;;;;;5014788;28;20638;-68
2023/04/19 04:02:10;;;;;;;3.37;1.93;;;14.50;40.70;;;;;;5014354;28;20299;-71
2023/04/19 04:04:35;;;;;;;3.20;1.93;;;14.40;40.50;;;;;;5012969;28;20174;-70
2023/04/19 04:07:01;;;;;;;2.80;1.37;;;14.20;41.20;;;;;;5014526;28;20647;-68
2023/04/19 04:09:27;;;;;;;6.23;1.83;;;14.40;40.40;;;;;;5014033;28;20176;-69
2023/04/19 04:11:52;;;;;;;2.50;1.30;;;14.40;40.00;;;;;;5014379;28;20170;-70
2023/04/19 04:14:18;;;;;;;6.00;1.77;;;14.50;39.70;;;;;;5013916;28;20564;-68
2023/04/19 04:16:43;;;;;;;3.77;1.90;;;14.40;39.80;;;;;;5014122;28;20224;-68
2023/04/19 04:19:09;;;;;;;2.67;1.37;;;14.40;40.20;;;;;;5013964;28;20201;-66
2023/04/19 04:21:35;;;;;;;3.10;1.70;;;14.40;40.10;;;;;;5011044;28;20665;-66
2023/04/19 04:24:00;;;;;;;2.60;1.27;;;14.50;40.00;;;;;;5013811;28;20230;-72
2023/04/19 04:26:29;;;;;;;4.23;2.30;;;14.40;40.20;;;;;;5013707;28;20641;-66
2023/04/19 04:28:56;;;;;;;3.20;1.80;;;14.40;40.10;;;;;;5013444;28;20170;-68
2023/04/19 04:31:21;;;;;;;3.10;1.83;;;14.40;40.60;;;;;;5013134;28;20435;-67
2023/04/19 04:33:47;;;;;;;3.10;1.53;;;14.40;40.40;;;;;;5013575;28;20481;-68
2023/04/19 04:36:12;;;;;;;3.13;1.67;;;14.30;40.40;;;;;;5013676;28;20545;-67
2023/04/19 04:38:38;;;;;;;5.13;1.70;;;14.20;40.90;;;;;;4994912;28;20183;-67
2023/04/19 04:41:04;;;;;;;2.80;1.50;;;13.70;41.20;;;;;;4994284;28;20232;-67
2023/04/19 04:43:32;;;;;;;3.33;1.53;;;13.70;42.90;;;;;;4991264;28;20387;-67
2023/04/19 04:45:58;;;;;;;2.90;1.40;;;14.00;41.30;;;;;;4992937;28;20436;-67
2023/04/19 04:48:24;;;;;;;16.70;2.77;;;14.20;41.10;;;;;;4993848;28;20433;-68
2023/04/19 04:50:49;;;;;;;3.50;1.57;;;14.60;40.80;;;;;;4993766;28;20437;-67
2023/04/19 04:53:15;;;;;;;4.40;2.00;;;14.20;40.60;;;;;;4993617;28;20857;-67
2023/04/19 04:55:41;;;;;;;4.60;1.57;;;14.20;40.80;;;;;;4994281;28;20174;-67
2023/04/19 04:58:06;;;;;;;3.93;1.80;;;13.80;41.90;;;;;;4992413;28;20185;-71
2023/04/19 05:00:32;;;;;;;4.20;2.07;;;14.00;41.50;;;;;;4993593;28;20201;-67
2023/04/19 05:02:58;;;;;;;3.00;1.63;;;14.00;41.70;;;;;;4993431;28;20221;-70
2023/04/19 05:05:24;;;;;;;3.00;1.60;;;14.20;40.90;;;;;;5007518;28;20587;-71
2023/04/19 05:07:49;;;;;;;2.60;1.40;;;14.30;40.70;;;;;;5013323;28;20542;-71
2023/04/19 05:10:15;;;;;;;2.90;1.50;;;14.20;40.50;;;;;;5013186;28;20499;-71
2023/04/19 05:12:41;;;;;;;3.77;1.53;;;14.20;40.60;;;;;;5012506;28;20640;-71
2023/04/19 05:15:07;;;;;;;2.60;1.20;;;14.30;41.00;;;;;;5012947;28;20174;-71
2023/04/19 05:17:33;;;;;;;2.70;1.30;;;14.10;40.20;;;;;;5013017;28;20416;-71
2023/04/19 05:19:59;;;;;;;4.60;1.97;;;14.20;40.40;;;;;;5013144;28;20822;-71
2023/04/19 05:22:25;;;;;;;2.80;1.50;;;14.20;40.30;;;;;;5012281;28;20490;-71
2023/04/19 05:24:50;;;;;;;2.80;1.30;;;14.30;40.70;;;;;;5012586;28;20166;-71
2023/04/19 05:27:16;;;;;;;2.80;1.40;;;14.30;40.90;;;;;;5012921;28;20455;-69
2023/04/19 05:29:42;;;;;;;2.70;1.20;;;14.10;40.60;;;;;;5012706;28;20606;-72
2023/04/19 05:32:07;;;;;;;3.53;1.43;;;14.10;40.80;;;;;;5013195;28;20171;-71
2023/04/19 05:34:34;;;;;;;2.70;1.40;;;14.30;40.00;;;;;;5012219;28;20173;-67
2023/04/19 05:37:01;;;;;;;2.90;1.60;;;14.60;39.90;;;;;;5012770;28;20181;-67
2023/04/19 05:39:27;;;;;;;13.40;2.40;;;14.70;39.30;;;;;;5012564;28;20452;-67
2023/04/19 05:41:52;;;;;;;2.60;1.50;;;14.70;39.20;;;;;;5012592;28;20456;-69
2023/04/19 05:44:18;;;;;;;4.37;2.60;;;14.70;38.50;;;;;;5011780;28;20221;-67
2023/04/19 05:46:44;;;;;;;2.70;1.50;;;14.70;38.70;;;;;;5011375;28;20210;-67
2023/04/19 05:49:09;;;;;;;3.47;1.70;;;14.70;39.10;;;;;;5012697;28;20176;-67
2023/04/19 05:51:35;;;;;;;4.20;2.17;;;14.90;38.50;;;;;;5012186;28;20176;-68
2023/04/19 05:54:01;;;;;;;3.00;1.50;;;14.80;38.30;;;;;;5010989;28;20321;-67
2023/04/19 05:56:26;;;;;;;4.00;2.07;;;14.80;38.20;;;;;;5012328;28;20585;-71
2023/04/19 05:58:54;;;;;;;2.90;1.70;;;14.70;38.60;;;;;;5012274;28;20185;-67
2023/04/19 06:01:20;;;;;;;2.40;1.20;;;14.70;38.40;;;;;;5010938;28;20185;-67
2023/04/19 06:03:45;;;;;;;3.30;1.80;;;14.70;38.60;;;;;;5011765;28;20465;-68
2023/04/19 06:06:11;;;;;;;2.80;1.63;;;14.80;38.70;;;;;;5012099;28;20257;-71
2023/04/19 06:08:36;;;;;;;9.53;2.20;;;14.30;39.90;;;;;;5012223;28;20715;-67
2023/04/19 06:11:02;;;;;;;3.07;1.93;;;14.40;39.40;;;;;;5012157;28;20257;-67
2023/04/19 06:13:28;;;;;;;3.20;1.90;;;14.30;39.60;;;;;;5010211;28;20201;-68
2023/04/19 06:15:53;;;;;;;4.80;2.23;;;14.40;39.50;;;;;;5012037;28;20172;-71
2023/04/19 06:18:19;;;;;;;5.07;1.90;;;14.50;39.20;;;;;;5012445;28;20258;-67
2023/04/19 06:20:45;;;;;;;2.47;1.30;;;14.50;39.60;;;;;;5011943;28;20246;-67
2023/04/19 06:23:11;;;;;;;2.87;1.50;;;14.60;39.60;;;;;;5011649;28;20677;-67
2023/04/19 06:25:37;;;;;;;3.03;1.83;;;14.70;39.20;;;;;;5011782;28;20173;-67
2023/04/19 06:28:03;;;;;;;2.63;1.40;;;14.80;38.50;;;;;;5012244;28;20409;-67
2023/04/19 06:30:29;;;;;;;2.60;1.40;;;14.90;37.90;;;;;;5011822;28;20180;-67
2023/04/19 06:32:54;;;;;;;2.40;1.37;;;14.80;37.60;;;;;;5011628;28;20548;-67
2023/04/19 06:35:20;;;;;;;3.43;2.10;;;14.90;38.20;;;;;;5011644;28;20181;-70
2023/04/19 06:37:45;;;;;;;3.77;1.80;;;15.00;37.60;;;;;;5010364;28;20598;-67
2023/04/19 06:40:11;;;;;;;2.53;1.40;;;14.80;37.20;;;;;;5012327;28;20191;-67
2023/04/19 06:42:37;;;;;;;3.37;1.73;;;14.70;38.10;;;;;;5009966;28;20599;-68
2023/04/19 06:45:04;;;;;;;2.70;1.60;;;14.70;38.80;;;;;;5011770;28;20174;-69
2023/04/19 06:47:30;;;;;;;3.77;2.00;;;14.70;38.00;;;;;;5011841;28;20406;-69
2023/04/19 06:49:56;;;;;;;4.27;2.40;;;14.70;38.80;;;;;;5010589;28;20408;-71
2023/04/19 06:52:22;;;;;;;2.93;1.83;;;14.70;39.20;;;;;;5010992;28;20418;-69
2023/04/19 06:54:48;;;;;;;3.30;2.10;;;14.70;37.90;;;;;;5015643;28;20551;-69
2023/04/19 06:57:15;;;;;;;4.23;1.67;;;14.80;39.50;;;;;;5014233;28;20670;-69
2023/04/19 06:59:41;;;;;;;3.13;1.97;;;15.00;38.70;;;;;;5015733;28;20490;-70
2023/04/19 07:02:06;;;;;;;5.00;2.83;;;15.00;37.40;;;;;;5014055;28;20460;-72
2023/04/19 07:04:32;;;;;;;2.57;1.57;;;15.20;37.20;;;;;;5015268;28;20209;-69
2023/04/19 07:06:58;;;;;;;2.73;1.70;;;15.20;37.20;;;;;;5015532;28;20182;-69
2023/04/19 07:09:23;;;;;;;2.70;1.73;;;15.20;37.20;;;;;;5015455;28;20172;-69
2023/04/19 07:11:50;;;;;;;2.87;1.70;;;15.30;37.30;;;;;;5015042;28;20547;-70
2023/04/19 07:14:18;;;;;;;4.30;1.90;;;15.40;37.40;;;;;;5014605;28;20571;-69
2023/04/19 07:16:46;;;;;;;2.50;1.53;;;15.20;37.90;;;;;;5015298;28;20415;-69
2023/04/19 07:19:12;;;;;;;3.07;2.10;;;15.10;37.10;;;;;;5015533;28;20451;-69
2023/04/19 07:21:38;;;;;;;2.40;1.47;;;15.20;37.50;;;;;;5013713;28;20436;-69
2023/04/19 07:24:07;;;;;;;2.20;1.27;;;15.30;37.30;;;;;;5014953;28;20961;-69
2023/04/19 07:26:33;;;;;;;2.33;1.43;;;15.60;36.80;;;;;;5015026;28;20415;-69
2023/04/19 07:29:00;;;;;;;2.20;1.30;;;15.50;36.50;;;;;;5014166;28;20819;-69
2023/04/19 07:31:27;;;;;;;2.87;1.60;;;15.40;36.50;;;;;;5015154;28;20419;-69
2023/04/19 07:33:53;;;;;;;4.97;2.40;;;15.60;37.20;;;;;;5014921;28;20500;-69
2023/04/19 07:36:20;;;;;;;2.70;1.80;;;15.40;37.40;;;;;;5014774;28;20552;-69
2023/04/19 07:38:46;;;;;;;3.20;1.60;;;15.40;37.40;;;;;;5015398;28;20408;-69
2023/04/19 07:41:11;;;;;;;2.60;1.70;;;15.20;38.00;;;;;;5014876;28;20421;-69
2023/04/19 07:43:37;;;;;;;2.20;1.30;;;14.70;38.50;;;;;;5014351;28;20219;-69
2023/04/19 07:46:09;;;;;;;3.00;1.83;;;14.40;39.50;;;;;;5014587;28;20401;-69
2023/04/19 07:48:35;;;;;;;8.23;2.17;;;14.70;38.40;;;;;;5014695;28;20180;-69
2023/04/19 07:51:11;;;;;;;4.13;2.00;;;14.70;39.00;;;;;;5014814;28;20785;-69
2023/04/19 07:53:38;;;;;;;2.93;1.90;;;14.80;38.20;;;;;;5012813;28;20851;-69
2023/04/19 07:56:05;;;;;;;2.70;1.77;;;14.50;38.10;;;;;;5014378;28;20422;-69
2023/04/19 07:58:31;;;;;;;2.53;1.63;;;14.40;39.40;;;;;;5014364;28;20503;-69
2023/04/19 08:00:56;;;;;;;2.70;1.80;;;14.50;39.70;;;;;;5014558;28;20498;-69
2023/04/19 08:03:22;;;;;;;2.73;1.93;;;14.90;38.40;;;;;;5013923;28;20204;-70
2023/04/19 08:05:47;;;;;;;3.07;1.73;;;15.20;37.20;;;;;;5011967;28;20184;-69
2023/04/19 08:08:13;;;;;;;2.50;1.67;;;15.40;37.40;;;;;;5014151;28;20545;-69
2023/04/19 08:10:38;;;;;;;3.80;2.00;;;15.70;35.80;;;;;;5014382;28;20179;-69
2023/04/19 08:13:04;;;;;;;3.37;2.13;;;15.90;35.80;;;;;;5013953;28;20216;-70
2023/04/19 08:15:30;;;;;;;3.83;2.50;;;16.00;35.10;;;;;;5014223;28;20211;-68
2023/04/19 08:17:55;;;;;;;2.93;1.43;;;15.90;36.10;;;;;;5013939;28;20208;-68
2023/04/19 08:20:22;;;;;;;2.73;1.70;;;15.90;35.40;;;;;;5014152;28;20174;-67
2023/04/19 08:22:47;;;;;;;3.23;1.77;;;15.50;35.30;;;;;;5013703;28;20241;-68
2023/04/19 08:25:13;;;;;;;2.90;1.90;;;15.50;35.90;;;;;;5014210;28;20421;-68
2023/04/19 08:27:38;;;;;;;2.10;1.30;;;15.60;35.00;;;;;;5013762;28;20208;-68
2023/04/19 08:30:06;;;;;;;2.30;1.70;;;14.90;37.70;;;;;;5014032;28;20173;-67
2023/04/19 08:32:32;;;;;;;3.00;1.90;;;14.50;37.80;;;;;;5013529;28;20193;-68
2023/04/19 08:34:59;;;;;;;2.03;1.37;;;14.30;38.20;;;;;;5013709;28;20412;-67
2023/04/19 08:37:25;;;;;;;2.50;1.70;;;15.30;38.10;;;;;;5014363;28;20181;-68
2023/04/19 08:39:51;;;;;;;3.23;2.33;;;16.00;34.80;;;;;;5013926;28;20408;-68
2023/04/19 08:42:18;;;;;;;2.50;1.80;;;15.00;35.90;;;;;;5013402;28;20788;-68
2023/04/19 08:44:45;;;;;;;2.17;1.53;;;15.20;37.30;;;;;;5013743;28;20630;-68
2023/04/19 08:47:11;;;;;;;3.30;2.17;;;15.80;35.00;;;;;;5013611;28;20409;-68
2023/04/19 08:49:38;;;;;;;2.27;1.50;;;16.40;33.80;;;;;;5013654;28;20506;-68
2023/04/19 08:52:05;;;;;;;2.97;1.90;;;16.90;35.00;;;;;;5013245;28;20405;-68
2023/04/19 08:54:31;;;;;;;3.10;1.80;;;17.30;30.60;;;;;;5013306;28;20666;-68
2023/04/19 08:57:00;;;;;;;2.40;1.73;;;16.80;32.10;;;;;;5013518;28;20829;-68
2023/04/19 08:59:29;;;;;;;2.37;1.80;;;17.20;31.80;;;;;;5013401;28;20189;-69
2023/04/19 09:01:57;;;;;;;2.13;1.60;;;17.00;30.40;;;;;;5012027;28;20424;-68
2023/04/19 09:04:24;;;;;;;2.40;1.90;;;17.40;30.80;;;;;;5013028;28;20825;-69
2023/04/19 09:06:49;;;;;;;3.73;2.10;;;17.30;30.80;;;;;;5013094;28;20408;-71
2023/04/19 09:09:18;;;;;;;3.00;2.10;;;17.80;29.60;;;;;;5013258;28;20416;-68
2023/04/19 09:11:44;;;;;;;2.10;1.60;;;18.10;29.00;;;;;;5013231;28;20178;-69
2023/04/19 09:14:11;;;;;;;2.73;1.70;;;18.10;29.20;;;;;;5012872;28;20869;-70
2023/04/19 09:16:38;;;;;;;2.67;2.10;;;17.90;30.70;;;;;;5012393;28;20179;-68
2023/04/19 09:19:04;;;;;;;3.00;1.90;;;17.90;30.50;;;;;;5013059;28;20429;-68
2023/04/19 09:21:31;;;;;;;4.20;2.60;;;18.50;28.90;;;;;;5012974;28;20987;-70
2023/04/19 09:23:57;;;;;;;2.60;1.73;;;18.60;28.10;;;;;;5012369;28;20472;-69
2023/04/19 09:26:23;;;;;;;3.30;1.73;;;18.00;29.20;;;;;;5013077;28;20414;-68
2023/04/19 09:29:15;;;;;;;6.43;2.63;;;18.10;29.30;;;;;;5012833;28;20511;-68
2023/04/19 09:31:56;;;;;;;2.57;1.60;;;18.40;28.60;;;;;;5012128;28;20192;-68
2023/04/19 09:34:23;;;;;;;2.30;1.60;;;18.50;28.60;;;;;;5011184;28;20633;-68
2023/04/19 09:36:48;;;;;;;3.07;2.20;;;18.80;26.80;;;;;;5012794;28;20420;-70
2023/04/19 09:39:35;;;;;;;2.97;1.80;;;18.80;27.00;;;;;;5012772;28;20422;-68
2023/04/19 09:42:01;;;;;;;2.43;1.87;;;18.60;27.40;;;;;;5012609;28;20176;-70
2023/04/19 09:44:27;;;;;;;3.20;2.13;;;18.10;27.70;;;;;;5012033;28;20480;-69
2023/04/19 09:46:54;;;;;;;2.23;1.60;;;17.60;28.40;;;;;;5012596;28;20809;-68
2023/04/19 09:49:23;;;;;;;2.57;1.87;;;17.40;29.20;;;;;;5012561;28;20417;-68
2023/04/19 09:51:53;;;;;;;2.67;1.93;;;17.50;29.00;;;;;;5012461;28;20429;-68
2023/04/19 09:54:21;;;;;;;2.63;1.77;;;17.70;28.70;;;;;;5011725;28;20929;-69
2023/04/19 09:56:47;;;;;;;2.87;1.93;;;18.00;29.30;;;;;;5012559;28;20416;-68
2023/04/19 09:59:13;;;;;;;2.43;1.77;;;17.20;29.70;;;;;;5012143;28;20413;-69
2023/04/19 10:01:45;;;;;;;2.90;1.90;;;17.60;30.50;;;;;;5012274;28;20414;-68
2023/04/19 10:04:21;;;;;;;2.87;1.80;;;18.10;29.10;;;;;;5010568;28;20699;-68
2023/04/19 10:06:53;;;;;;;2.80;1.77;;;18.30;28.40;;;;;;5010861;28;20627;-68
2023/04/19 10:09:22;;;;;;;4.03;2.67;;;17.20;30.00;;;;;;5012013;28;20416;-69
2023/04/19 10:11:56;;;;;;;3.17;1.87;;;17.60;29.40;;;;;;5012263;28;20413;-68
2023/04/19 10:14:23;;;;;;;5.63;3.10;;;17.70;29.60;;;;;;5011649;28;20440;-68
2023/04/19 10:16:50;;;;;;;3.30;1.90;;;17.80;29.00;;;;;;5011962;28;20642;-68
2023/04/19 10:19:19;;;;;;;2.57;1.80;;;17.80;29.20;;;;;;5012332;28;20475;-69
2023/04/19 10:21:47;;;;;;;1.97;1.30;;;17.30;29.60;;;;;;5012372;28;20762;-68
2023/04/19 10:24:14;;;;;;;2.20;1.60;;;16.60;31.20;;;;;;5011643;28;20456;-68
2023/04/19 10:27:04;;;;;;;2.83;1.90;;;16.80;31.00;;;;;;5011724;28;20418;-68
2023/04/19 10:30:02;;;;;;;2.50;2.00;;;16.50;31.70;;;;;;5011441;28;20934;-68
2023/04/19 10:32:39;;;;;;;2.13;1.47;;;16.80;30.80;;;;;;5010536;28;20445;-72
2023/04/19 10:35:28;;;;;;;3.00;1.97;;;17.70;29.30;;;;;;5012082;28;20403;-68
2023/04/19 10:38:02;;;;;;;2.70;1.90;;;18.00;28.20;;;;;;5011854;28;20930;-68
2023/04/19 10:40:54;;;;;;;3.03;2.10;;;17.40;29.30;;;;;;5011377;28;20444;-69
2023/04/19 10:43:20;;;;;;;2.87;1.93;;;17.80;28.80;;;;;;5011419;28;20471;-68
2023/04/19 10:45:46;;;;;;;2.40;1.80;;;17.60;29.90;;;;;;5010508;28;20926;-68
2023/04/19 10:48:31;;;;;;;2.13;1.53;;;17.80;29.80;;;;;;5011895;28;20419;-69
2023/04/19 10:51:18;;;;;;;3.80;2.43;;;18.00;30.00;;;;;;5010750;28;20415;-68
2023/04/19 10:54:07;;;;;;;7.50;2.67;;;18.10;29.00;;;;;;5011385;28;20473;-68
2023/04/19 10:56:32;;;;;;;2.30;1.67;;;18.10;29.40;;;;;;5011352;28;20471;-69
2023/04/19 10:59:09;;;;;;;4.83;1.93;;;18.30;28.20;;;;;;5011461;28;20418;-70
2023/04/19 11:01:46;;;;;;;3.27;2.23;;;18.20;28.20;;;;;;5010262;28;20168;-69
2023/04/19 11:04:30;;;;;;;3.00;1.97;;;18.20;27.90;;;;;;5011120;28;20985;-70
2023/04/19 11:07:00;;;;;;;3.47;1.90;;;18.50;28.60;;;;;;5011652;28;20896;-69
2023/04/19 11:09:26;;;;;;;2.60;1.90;;;18.10;28.20;;;;;;5011472;28;20984;-70
2023/04/19 11:11:52;;;;;;;2.97;1.90;;;17.60;28.00;;;;;;5011601;28;20436;-70
2023/04/19 11:14:20;;;;;;;3.03;2.07;;;16.60;30.20;;;;;;5011010;28;20193;-69
2023/04/19 11:16:46;;;;;;;2.23;1.63;;;15.90;31.30;;;;;;5011683;28;20440;-69
2023/04/19 11:19:29;;;;;;;2.23;1.57;;;16.10;31.70;;;;;;5011576;28;20470;-69
2023/04/19 11:21:58;;;;;;;3.73;2.03;;;17.20;30.60;;;;;;5011635;28;20180;-69
2023/04/19 11:24:24;;;;;;;63.00;2.80;;;17.10;28.60;;;;;;5010747;28;20543;-70
2023/04/19 11:26:50;;;;;;;3.17;2.10;;;16.20;30.70;;;;;;5011864;28;20476;-69
2023/04/19 11:29:15;;;;;;;2.00;1.40;;;16.40;30.40;;;;;;5011511;28;20408;-69
2023/04/19 11:31:45;;;;;;;3.17;1.80;;;17.20;31.00;;;;;;5011674;28;20665;-69
2023/04/19 11:34:11;;;;;;;2.40;1.50;;;18.10;27.70;;;;;;5015626;28;20662;-70
2023/04/19 11:36:55;;;;;;;6.33;3.00;;;18.90;27.70;;;;;;5011380;28;20499;-70
2023/04/19 11:39:21;;;;;;;4.30;1.90;;;18.90;25.50;;;;;;5013428;28;20422;-70
2023/04/19 11:41:46;;;;;;;3.90;2.10;;;18.80;26.30;;;;;;5015988;28;20419;-70
2023/04/19 11:44:18;;;;;;;2.30;1.70;;;19.10;25.30;;;;;;5014942;28;20216;-70
2023/04/19 11:47:00;;;;;;;2.00;1.40;;;19.30;26.80;;;;;;5014663;28;20177;-69
2023/04/19 11:49:30;;;;;;;3.87;1.97;;;18.70;27.50;;;;;;5013671;28;20433;-69
2023/04/19 11:52:00;;;;;;;2.67;2.00;;;18.80;26.60;;;;;;5014835;28;20417;-70
2023/04/19 11:54:26;;;;;;;3.60;2.40;;;18.90;26.50;;;;;;5014261;28;20951;-69
2023/04/19 11:57:02;;;;;;;16.70;2.70;;;19.00;27.40;;;;;;5014848;28;20495;-70
2023/04/19 11:59:29;;;;;;;4.20;2.23;;;19.20;28.50;;;;;;5014235;28;20842;-69
2023/04/19 12:01:54;;;;;;;2.73;1.93;;;18.80;27.20;;;;;;5014967;28;20502;-69
2023/04/19 12:04:21;;;;;;;2.10;1.50;;;18.70;26.50;;;;;;5013063;28;20546;-70
2023/04/19 12:06:57;;;;;;;3.20;2.07;;;19.00;27.50;;;;;;5014657;28;20169;-70
2023/04/19 12:09:23;;;;;;;2.40;1.80;;;19.30;27.00;;;;;;5014575;28;20892;-70
2023/04/19 12:11:51;;;;;;;2.77;1.80;;;19.90;25.60;;;;;;5013966;28;20411;-70
2023/04/19 12:14:20;;;;;;;3.17;2.27;;;19.40;26.70;;;;;;5012873;28;20292;-70
2023/04/19 12:17:01;;;;;;;3.10;2.27;;;19.60;25.70;;;;;;5013005;28;20421;-70
2023/04/19 12:19:33;;;;;;;3.63;2.20;;;19.70;25.80;;;;;;5013018;28;20464;-70
2023/04/19 12:22:11;;;;;;;10.70;2.20;;;19.70;25.80;;;;;;5013985;28;20458;-70
2023/04/19 12:24:38;;;;;;;3.00;2.17;;;19.40;25.50;;;;;;5013978;28;20791;-69
2023/04/19 12:27:04;;;;;;;3.57;1.83;;;19.50;25.60;;;;;;5014200;28;20406;-70
2023/04/19 12:29:30;;;;;;;2.60;1.77;;;19.60;25.00;;;;;;5013779;28;20413;-70
2023/04/19 12:31:56;;;;;;;2.57;1.77;;;19.60;25.90;;;;;;5014022;28;20523;-70
2023/04/19 12:34:21;;;;;;;2.50;1.80;;;19.70;24.90;;;;;;5013963;28;20202;-69
2023/04/19 12:36:47;;;;;;;2.97;1.93;;;18.90;26.00;;;;;;5014164;28;20257;-69
2023/04/19 12:39:12;;;;;;;3.00;2.10;;;18.70;26.70;;;;;;5013615;28;20657;-70
2023/04/19 12:41:38;;;;;;;2.30;1.73;;;18.90;26.50;;;;;;5012380;28;20268;-70
2023/04/19 12:44:04;;;;;;;2.37;1.70;;;18.20;26.80;;;;;;5013466;28;20263;-70
2023/04/19 12:46:29;;;;;;;3.00;1.70;;;18.20;27.50;;;;;;5012222;28;20206;-69